createdAt,value
2023-04-14T00:03:20.686Z,2.30
2023-04-14T00:08:22.765Z,1.60
2023-04-14T00:13:24.533Z,1.83
2023-04-14T00:18:26.544Z,2.00
2023-04-14T00:23:28.502Z,1.40
2023-04-14T00:28:30.374Z,1.77
2023-04-14T00:33:32.237Z,1.80
2023-04-14T00:38:36.594Z,1.90
2023-04-14T00:43:38.612Z,1.50
2023-04-14T00:48:40.521Z,1.40
2023-04-14T00:53:42.851Z,1.95
2023-04-14T00:58:45.273Z,1.83
2023-04-14T01:03:48.096Z,1.50
2023-04-14T01:08:50.705Z,1.13
2023-04-14T01:14:11.812Z,1.45
2023-04-14T01:19:46.063Z,1.42
2023-04-14T01:25:17.082Z,1.77
2023-04-14T01:30:37.825Z,1.45
2023-04-14T01:35:50.874Z,1.33
2023-04-14T01:40:57.469Z,1.80
2023-04-14T01:46:07.166Z,1.15
2023-04-14T01:51:10.683Z,1.75
2023-04-14T01:56:15.779Z,1.85
2023-04-14T02:01:20.153Z,1.42
2023-04-14T02:06:24.340Z,1.95
2023-04-14T02:11:28.093Z,1.48
2023-04-14T02:16:30.451Z,1.35
2023-04-14T02:21:35.444Z,1.40
2023-04-14T02:26:44.249Z,1.40
2023-04-14T02:32:11.920Z,1.50
2023-04-14T02:37:22.004Z,1.83
2023-04-14T02:42:27.848Z,1.58
2023-04-14T02:47:33.447Z,1.60
2023-04-14T02:52:37.098Z,1.55
2023-04-14T02:57:40.150Z,2.10
2023-04-14T03:02:45.409Z,1.80
2023-04-14T03:07:47.955Z,2.20
2023-04-14T03:12:53.425Z,2.55
2023-04-14T03:17:58.952Z,1.63
2023-04-14T03:23:05.398Z,1.77
2023-04-14T03:28:16.061Z,2.13
2023-04-14T03:33:29.261Z,2.05
2023-04-14T03:38:34.679Z,2.05
2023-04-14T03:43:38.394Z,2.78
2023-04-14T03:48:46.703Z,2.25
2023-04-14T03:53:52.020Z,2.40
2023-04-14T03:58:57.232Z,2.25
2023-04-14T04:04:03.065Z,2.00
2023-04-14T04:09:07.548Z,2.40
2023-04-14T04:14:10.904Z,2.15
2023-04-14T04:19:16.018Z,2.38
2023-04-14T04:24:22.209Z,2.55
2023-04-14T04:29:27.218Z,2.15
2023-04-14T04:34:32.468Z,2.47
2023-04-14T04:39:35.075Z,2.80
2023-04-14T04:44:37.584Z,2.53
2023-04-14T04:49:39.666Z,2.63
2023-04-14T04:54:41.798Z,2.53
2023-04-14T04:59:44.018Z,3.50
2023-04-14T05:04:45.928Z,2.28
2023-04-14T05:09:47.804Z,3.65
2023-04-14T05:14:49.684Z,2.75
2023-04-14T05:19:51.718Z,2.78
2023-04-14T05:24:53.781Z,2.90
2023-04-14T05:29:55.624Z,3.22
2023-04-14T05:34:57.968Z,3.10
2023-04-14T05:39:59.820Z,2.40
2023-04-14T05:45:01.811Z,3.00
2023-04-14T05:50:04.363Z,2.72
2023-04-14T05:55:07.276Z,2.67
2023-04-14T06:00:10.823Z,2.40
2023-04-14T06:05:15.775Z,2.70
2023-04-14T06:10:17.695Z,3.08
2023-04-14T06:15:19.644Z,2.72
2023-04-14T06:20:22.024Z,3.50
2023-04-14T06:25:24.275Z,3.72
2023-04-14T06:30:28.580Z,4.07
2023-04-14T06:35:34.004Z,3.92
2023-04-14T06:40:36.106Z,4.72
2023-04-14T06:45:38.118Z,3.20
2023-04-14T06:50:40.306Z,3.50
2023-04-14T06:55:43.475Z,3.10
2023-04-14T07:00:45.292Z,3.75
2023-04-14T07:05:47.239Z,4.03
2023-04-14T07:10:49.059Z,3.35
2023-04-14T07:15:50.919Z,3.20
2023-04-14T07:20:54.237Z,3.15
2023-04-14T07:25:58.464Z,2.45
2023-04-14T07:31:08.083Z,3.15
2023-04-14T07:36:09.992Z,3.40
2023-04-14T07:41:11.898Z,4.15
2023-04-14T07:46:13.755Z,2.42
2023-04-14T07:51:15.716Z,2.65
2023-04-14T07:56:17.582Z,3.05
2023-04-14T08:01:19.618Z,2.10
2023-04-14T08:06:21.545Z,2.20
2023-04-14T08:11:23.379Z,1.70
2023-04-14T08:16:25.420Z,1.70
2023-04-14T08:21:27.857Z,1.95
2023-04-14T08:26:29.960Z,2.70
2023-04-14T08:31:33.256Z,2.42
2023-04-14T08:36:35.150Z,2.20
2023-04-14T08:41:39.176Z,2.22
2023-04-14T08:46:43.122Z,2.38
2023-04-14T08:51:45.880Z,2.90
2023-04-14T08:56:50.335Z,3.55
2023-04-14T09:01:57.233Z,3.42
2023-04-14T09:07:04.268Z,3.27
2023-04-14T09:12:07.169Z,3.10
2023-04-14T09:17:09.747Z,2.92
2023-04-14T09:22:12.072Z,3.03
2023-04-14T09:27:14.290Z,2.17
2023-04-14T09:32:16.394Z,2.15
2023-04-14T09:37:21.452Z,2.20
2023-04-14T09:42:42.816Z,2.30
2023-04-14T09:47:45.030Z,1.98
2023-04-14T09:52:49.369Z,2.33
2023-04-14T09:57:52.004Z,2.20
2023-04-14T10:02:58.063Z,2.10
2023-04-14T10:08:05.458Z,2.17
2023-04-14T10:13:07.729Z,2.30
2023-04-14T10:18:09.901Z,2.47
2023-04-14T10:23:12.507Z,2.22
2023-04-14T10:28:16.235Z,2.30
2023-04-14T10:33:19.076Z,2.47
2023-04-14T10:38:21.036Z,2.33
2023-04-14T10:43:28.521Z,2.22
2023-04-14T10:48:39.803Z,2.20
2023-04-14T10:53:47.460Z,2.10
2023-04-14T10:58:56.993Z,2.20
2023-04-14T11:04:21.035Z,1.73
2023-04-14T11:09:34.873Z,2.03
2023-04-14T11:14:37.469Z,1.65
2023-04-14T11:19:40.285Z,1.75
2023-04-14T11:24:43.718Z,1.77
2023-04-14T11:29:49.088Z,2.20
2023-04-14T11:34:51.474Z,3.40
2023-04-14T11:39:53.498Z,1.73
2023-04-14T11:44:58.731Z,2.45
2023-04-14T11:50:05.457Z,2.35
2023-04-14T11:55:07.825Z,2.75
2023-04-14T12:00:12.928Z,1.52
2023-04-14T12:05:30.247Z,2.17
2023-04-14T12:10:34.298Z,2.20
2023-04-14T12:15:39.617Z,2.88
2023-04-14T12:21:02.576Z,2.10
2023-04-14T12:26:10.867Z,2.15
2023-04-14T12:31:12.871Z,1.90
2023-04-14T12:36:15.393Z,1.90
2023-04-14T12:41:24.425Z,2.10
2023-04-14T12:46:26.803Z,3.45
2023-04-14T12:51:28.820Z,2.05
2023-04-14T12:56:34.027Z,2.15
2023-04-14T13:01:36.614Z,1.85
2023-04-14T13:06:39.101Z,2.75
2023-04-14T13:11:41.110Z,2.28
2023-04-14T13:16:43.274Z,2.50
2023-04-14T13:21:45.398Z,2.65
2023-04-14T13:26:47.627Z,1.88
2023-04-14T13:31:49.685Z,2.25
2023-04-14T13:36:51.840Z,2.17
2023-04-14T13:41:53.848Z,2.35
2023-04-14T13:46:56.286Z,2.00
2023-04-14T13:52:01.265Z,2.53
2023-04-14T13:57:03.626Z,2.60
2023-04-14T14:02:06.730Z,2.30
2023-04-14T14:07:08.669Z,2.20
2023-04-14T14:12:12.292Z,2.20
2023-04-14T14:17:14.308Z,1.83
2023-04-14T14:22:16.372Z,2.38
2023-04-14T14:27:18.336Z,2.80
2023-04-14T14:32:20.537Z,2.35
2023-04-14T14:37:23.307Z,2.63
2023-04-14T14:42:26.133Z,2.20
2023-04-14T14:47:29.259Z,2.47
2023-04-14T14:52:32.827Z,1.95
2023-04-14T14:57:34.867Z,2.50
2023-04-14T15:02:37.142Z,2.40
2023-04-14T15:07:39.771Z,2.13
2023-04-14T15:12:41.647Z,2.13
2023-04-14T15:17:43.461Z,1.90
2023-04-14T15:22:45.637Z,2.45
2023-04-14T15:27:47.785Z,2.22
2023-04-14T15:32:51.237Z,2.22
2023-04-14T15:37:53.209Z,2.58
2023-04-14T15:42:57.209Z,2.58
2023-04-14T15:47:59.249Z,2.38
2023-04-14T15:53:01.086Z,2.75
2023-04-14T15:58:05.929Z,3.28
2023-04-14T16:03:08.331Z,3.03
2023-04-14T16:08:10.979Z,2.63
2023-04-14T16:13:14.888Z,2.47
2023-04-14T16:18:16.755Z,3.13
2023-04-14T16:23:19.060Z,2.60
2023-04-14T16:28:22.978Z,3.13
2023-04-14T16:33:24.764Z,3.05
2023-04-14T16:38:27.185Z,2.40
2023-04-14T16:43:30.811Z,2.55
2023-04-14T16:48:33.402Z,2.60
2023-04-14T16:53:36.964Z,2.63
2023-04-14T16:58:39.033Z,2.35
2023-04-14T17:03:41.074Z,3.00
2023-04-14T17:08:43.110Z,2.72
2023-04-14T17:13:44.898Z,2.50
2023-04-14T17:18:48.502Z,2.30
2023-04-14T17:23:50.437Z,2.58
2023-04-14T17:28:52.728Z,2.47
2023-04-14T17:33:55.104Z,2.40
2023-04-14T17:38:57.091Z,2.42
2023-04-14T17:43:59.062Z,3.08
2023-04-14T17:49:04.341Z,2.95
2023-04-14T17:54:06.315Z,2.80
2023-04-14T17:59:08.294Z,2.67
2023-04-14T18:04:11.153Z,2.72
2023-04-14T18:09:13.183Z,2.45
2023-04-14T18:14:15.486Z,2.33
2023-04-14T18:19:17.298Z,2.30
2023-04-14T18:29:24.635Z,2.50
2023-04-14T18:34:27.404Z,2.80
2023-04-14T18:39:35.810Z,2.50
2023-04-14T18:44:37.962Z,2.50
2023-04-14T18:49:40.510Z,2.60
2023-04-14T18:54:43.007Z,2.67
2023-04-14T18:59:44.814Z,2.70
2023-04-14T19:04:46.752Z,4.72
2023-04-14T19:09:49.234Z,3.13
2023-04-14T19:14:51.060Z,2.05
2023-04-14T19:19:52.992Z,2.20
2023-04-14T19:24:56.285Z,2.35
2023-04-14T19:29:58.209Z,2.22
2023-04-14T19:35:00.518Z,2.28
2023-04-14T19:40:06.616Z,2.78
2023-04-14T19:45:10.295Z,2.53
2023-04-14T19:50:12.576Z,2.13
2023-04-14T19:55:15.858Z,1.92
2023-04-14T20:00:17.961Z,1.98
2023-04-14T20:05:20.359Z,2.30
2023-04-14T20:10:22.456Z,1.88
2023-04-14T20:15:25.633Z,1.60
2023-04-14T20:20:28.690Z,1.90
2023-04-14T20:25:31.061Z,1.73
2023-04-14T20:30:32.880Z,1.60
2023-04-14T20:35:36.483Z,1.80
2023-04-14T20:40:38.690Z,1.98
2023-04-14T20:45:40.631Z,1.85
2023-04-14T20:50:44.577Z,1.58
2023-04-14T20:55:46.580Z,1.90
2023-04-14T21:00:49.277Z,1.88
2023-04-14T21:05:51.456Z,4.75
2023-04-14T21:11:15.738Z,3.15
2023-04-14T21:16:16.546Z,4.82
2023-04-14T21:21:18.388Z,3.00
2023-04-14T21:26:20.280Z,3.13
2023-04-14T21:31:22.100Z,2.10
2023-04-14T21:36:24.556Z,3.03
2023-04-14T21:41:26.565Z,3.22
2023-04-14T21:46:28.665Z,2.97
2023-04-14T21:51:30.583Z,1.83
2023-04-14T21:56:32.872Z,1.50
2023-04-14T22:01:36.648Z,1.60
2023-04-14T22:06:40.787Z,1.77
2023-04-14T22:11:42.663Z,1.70
2023-04-14T22:16:44.540Z,1.38
2023-04-14T22:21:46.456Z,1.38
2023-04-14T22:26:48.295Z,1.48
2023-04-14T22:31:50.578Z,1.27
2023-04-14T22:36:52.533Z,1.00
2023-04-14T22:41:54.394Z,1.17
2023-04-14T22:46:56.343Z,1.08
2023-04-14T22:51:58.105Z,1.52
2023-04-14T22:57:00.053Z,1.10
2023-04-14T23:02:02.343Z,1.30
2023-04-14T23:07:05.177Z,1.27
2023-04-14T23:12:07.260Z,1.08
2023-04-14T23:17:09.179Z,1.10
2023-04-14T23:22:11.012Z,1.02
2023-04-14T23:27:13.092Z,1.10
2023-04-14T23:32:14.951Z,0.88
2023-04-14T23:37:17.382Z,1.05
2023-04-14T23:42:19.425Z,0.88
2023-04-14T23:47:22.431Z,1.52
2023-04-14T23:52:24.261Z,1.33
2023-04-14T23:57:27.521Z,0.85
